sensor_id;sensor_type;location;lat;lon;timestamp;temperature;humidity
67777;DHT22;54576;52.020;5.536;2023-08-07T00:01:35;13.70;99.90
67777;DHT22;54576;52.020;5.536;2023-08-07T00:04:00;13.70;99.90
67777;DHT22;54576;52.020;5.536;2023-08-07T00:06:26;13.70;99.90
67777;DHT22;54576;52.020;5.536;2023-08-07T00:08:52;13.70;99.90
67777;DHT22;54576;52.020;5.536;2023-08-07T00:11:18;13.70;99.90
67777;DHT22;54576;52.020;5.536;2023-08-07T00:13:43;13.70;99.90
67777;DHT22;54576;52.020;5.536;2023-08-07T00:16:09;13.70;99.90
67777;DHT22;54576;52.020;5.536;2023-08-07T00:18:35;13.70;99.90
67777;DHT22;54576;52.020;5.536;2023-08-07T00:21:01;13.70;99.90
67777;DHT22;54576;52.020;5.536;2023-08-07T00:23:27;13.70;99.90
67777;DHT22;54576;52.020;5.536;2023-08-07T00:25:53;13.70;99.90
67777;DHT22;54576;52.020;5.536;2023-08-07T00:28:18;13.70;99.90
67777;DHT22;54576;52.020;5.536;2023-08-07T00:30:44;13.70;99.90
67777;DHT22;54576;52.020;5.536;2023-08-07T00:33:09;13.70;99.90
67777;DHT22;54576;52.020;5.536;2023-08-07T00:35:35;13.70;99.90
67777;DHT22;54576;52.020;5.536;2023-08-07T00:38:01;13.70;99.90
67777;DHT22;54576;52.020;5.536;2023-08-07T00:40:26;13.70;99.90
67777;DHT22;54576;52.020;5.536;2023-08-07T00:42:52;13.70;99.90
67777;DHT22;54576;52.020;5.536;2023-08-07T00:45:17;13.70;99.90
67777;DHT22;54576;52.020;5.536;2023-08-07T00:47:43;13.70;99.90
67777;DHT22;54576;52.020;5.536;2023-08-07T00:50:10;13.70;99.90
67777;DHT22;54576;52.020;5.536;2023-08-07T00:52:36;13.70;99.90
67777;DHT22;54576;52.020;5.536;2023-08-07T00:55:02;13.70;99.90
67777;DHT22;54576;52.020;5.536;2023-08-07T00:57:29;13.70;99.90
67777;DHT22;54576;52.020;5.536;2023-08-07T00:59:55;13.70;99.90
67777;DHT22;54576;52.020;5.536;2023-08-07T01:02:21;13.70;99.90
67777;DHT22;54576;52.020;5.536;2023-08-07T01:04:46;13.70;99.90
67777;DHT22;54576;52.020;5.536;2023-08-07T01:07:12;13.70;99.90
67777;DHT22;54576;52.020;5.536;2023-08-07T01:09:38;13.70;99.90
67777;DHT22;54576;52.020;5.536;2023-08-07T01:12:18;13.70;99.90
67777;DHT22;54576;52.020;5.536;2023-08-07T01:14:51;13.70;99.90
67777;DHT22;54576;52.020;5.536;2023-08-07T01:17:20;13.70;99.90
67777;DHT22;54576;52.020;5.536;2023-08-07T01:19:47;13.70;99.90
67777;DHT22;54576;52.020;5.536;2023-08-07T01:22:16;13.70;99.90
67777;DHT22;54576;52.020;5.536;2023-08-07T01:24:44;13.70;99.90
67777;DHT22;54576;52.020;5.536;2023-08-07T01:35:56;13.70;99.90
67777;DHT22;54576;52.020;5.536;2023-08-07T01:38:25;13.70;99.90
67777;DHT22;54576;52.020;5.536;2023-08-07T01:40:52;13.70;99.90
67777;DHT22;54576;52.020;5.536;2023-08-07T01:43:18;13.70;99.90
67777;DHT22;54576;52.020;5.536;2023-08-07T01:45:44;13.70;99.90
67777;DHT22;54576;52.020;5.536;2023-08-07T01:48:11;13.70;99.90
67777;DHT22;54576;52.020;5.536;2023-08-07T01:50:38;13.70;99.90
67777;DHT22;54576;52.020;5.536;2023-08-07T01:53:04;13.70;99.90
67777;DHT22;54576;52.020;5.536;2023-08-07T01:55:30;13.70;99.90
67777;DHT22;54576;52.020;5.536;2023-08-07T01:57:56;13.70;99.90
67777;DHT22;54576;52.020;5.536;2023-08-07T02:00:21;13.70;99.90
67777;DHT22;54576;52.020;5.536;2023-08-07T02:02:47;13.70;99.90
67777;DHT22;54576;52.020;5.536;2023-08-07T02:05:14;13.70;99.90
67777;DHT22;54576;52.020;5.536;2023-08-07T02:07:40;13.70;99.90
67777;DHT22;54576;52.020;5.536;2023-08-07T02:10:06;13.70;99.90
67777;DHT22;54576;52.020;5.536;2023-08-07T02:12:32;13.70;99.90
67777;DHT22;54576;52.020;5.536;2023-08-07T02:15:00;13.70;99.90
67777;DHT22;54576;52.020;5.536;2023-08-07T02:17:27;13.70;99.90
67777;DHT22;54576;52.020;5.536;2023-08-07T02:19:52;13.60;99.90
67777;DHT22;54576;52.020;5.536;2023-08-07T02:22:18;13.70;99.90
67777;DHT22;54576;52.020;5.536;2023-08-07T02:24:44;13.70;99.90
67777;DHT22;54576;52.020;5.536;2023-08-07T02:27:10;13.70;99.90
67777;DHT22;54576;52.020;5.536;2023-08-07T02:29:35;13.70;99.90
67777;DHT22;54576;52.020;5.536;2023-08-07T02:32:02;13.70;99.90
67777;DHT22;54576;52.020;5.536;2023-08-07T02:34:31;13.70;99.90
67777;DHT22;54576;52.020;5.536;2023-08-07T02:36:57;13.70;99.90
67777;DHT22;54576;52.020;5.536;2023-08-07T02:39:24;13.70;99.90
67777;DHT22;54576;52.020;5.536;2023-08-07T02:41:49;13.70;99.90
67777;DHT22;54576;52.020;5.536;2023-08-07T02:44:15;13.80;99.90
67777;DHT22;54576;52.020;5.536;2023-08-07T02:46:43;13.80;99.90
67777;DHT22;54576;52.020;5.536;2023-08-07T02:49:08;13.70;99.90
67777;DHT22;54576;52.020;5.536;2023-08-07T02:51:34;13.70;99.90
67777;DHT22;54576;52.020;5.536;2023-08-07T02:53:59;13.70;99.90
67777;DHT22;54576;52.020;5.536;2023-08-07T02:56:25;13.70;99.90
67777;DHT22;54576;52.020;5.536;2023-08-07T02:58:50;13.80;99.90
67777;DHT22;54576;52.020;5.536;2023-08-07T03:01:16;13.80;99.90
67777;DHT22;54576;52.020;5.536;2023-08-07T03:03:42;13.80;99.90
67777;DHT22;54576;52.020;5.536;2023-08-07T03:06:07;13.80;99.90
67777;DHT22;54576;52.020;5.536;2023-08-07T03:08:33;13.80;99.90
67777;DHT22;54576;52.020;5.536;2023-08-07T03:10:58;13.80;99.90
67777;DHT22;54576;52.020;5.536;2023-08-07T03:13:25;13.80;99.90
67777;DHT22;54576;52.020;5.536;2023-08-07T03:15:58;13.80;99.90
67777;DHT22;54576;52.020;5.536;2023-08-07T03:18:23;13.80;99.90
67777;DHT22;54576;52.020;5.536;2023-08-07T03:20:49;13.80;99.90
67777;DHT22;54576;52.020;5.536;2023-08-07T03:23:15;13.70;99.90
67777;DHT22;54576;52.020;5.536;2023-08-07T03:25:40;13.70;99.90
67777;DHT22;54576;52.020;5.536;2023-08-07T03:28:15;13.70;99.90
67777;DHT22;54576;52.020;5.536;2023-08-07T03:30:40;13.70;99.90
67777;DHT22;54576;52.020;5.536;2023-08-07T03:33:06;13.70;99.90
67777;DHT22;54576;52.020;5.536;2023-08-07T03:35:32;13.70;99.90
67777;DHT22;54576;52.020;5.536;2023-08-07T03:37:58;13.70;99.90
67777;DHT22;54576;52.020;5.536;2023-08-07T03:40:23;13.60;99.90
67777;DHT22;54576;52.020;5.536;2023-08-07T03:42:49;13.70;99.90
67777;DHT22;54576;52.020;5.536;2023-08-07T03:45:14;13.60;99.90
67777;DHT22;54576;52.020;5.536;2023-08-07T03:47:40;13.70;99.90
67777;DHT22;54576;52.020;5.536;2023-08-07T03:50:06;13.70;99.90
67777;DHT22;54576;52.020;5.536;2023-08-07T03:52:32;13.70;99.90
67777;DHT22;54576;52.020;5.536;2023-08-07T03:54:57;13.70;99.90
67777;DHT22;54576;52.020;5.536;2023-08-07T03:57:23;13.70;99.90
67777;DHT22;54576;52.020;5.536;2023-08-07T03:59:48;13.60;99.90
67777;DHT22;54576;52.020;5.536;2023-08-07T04:02:14;13.60;99.90
67777;DHT22;54576;52.020;5.536;2023-08-07T04:04:39;13.70;99.90
67777;DHT22;54576;52.020;5.536;2023-08-07T04:07:05;13.60;99.90
67777;DHT22;54576;52.020;5.536;2023-08-07T04:09:31;13.70;99.90
67777;DHT22;54576;52.020;5.536;2023-08-07T04:11:57;13.70;99.90
67777;DHT22;54576;52.020;5.536;2023-08-07T04:14:23;13.70;99.90
67777;DHT22;54576;52.020;5.536;2023-08-07T04:16:49;13.70;99.90
67777;DHT22;54576;52.020;5.536;2023-08-07T04:19:14;13.70;99.90
67777;DHT22;54576;52.020;5.536;2023-08-07T04:21:40;13.70;99.90
67777;DHT22;54576;52.020;5.536;2023-08-07T04:24:05;13.70;99.90
67777;DHT22;54576;52.020;5.536;2023-08-07T04:26:36;13.70;99.90
67777;DHT22;54576;52.020;5.536;2023-08-07T04:29:02;13.80;99.90
67777;DHT22;54576;52.020;5.536;2023-08-07T04:31:28;13.80;99.90
67777;DHT22;54576;52.020;5.536;2023-08-07T04:33:53;13.80;99.90
67777;DHT22;54576;52.020;5.536;2023-08-07T04:36:19;13.80;99.90
67777;DHT22;54576;52.020;5.536;2023-08-07T04:38:46;13.80;99.90
67777;DHT22;54576;52.020;5.536;2023-08-07T04:41:11;13.80;99.90
67777;DHT22;54576;52.020;5.536;2023-08-07T04:43:37;13.80;99.90
67777;DHT22;54576;52.020;5.536;2023-08-07T04:46:03;13.90;99.90
67777;DHT22;54576;52.020;5.536;2023-08-07T04:48:28;13.90;99.90
67777;DHT22;54576;52.020;5.536;2023-08-07T04:50:54;13.90;99.90
67777;DHT22;54576;52.020;5.536;2023-08-07T04:53:19;13.90;99.90
67777;DHT22;54576;52.020;5.536;2023-08-07T04:55:46;13.90;99.90
67777;DHT22;54576;52.020;5.536;2023-08-07T04:58:11;13.90;99.90
67777;DHT22;54576;52.020;5.536;2023-08-07T05:00:37;13.90;99.90
67777;DHT22;54576;52.020;5.536;2023-08-07T05:03:03;13.90;99.90
67777;DHT22;54576;52.020;5.536;2023-08-07T05:05:28;13.90;99.90
67777;DHT22;54576;52.020;5.536;2023-08-07T05:07:58;13.90;99.90
67777;DHT22;54576;52.020;5.536;2023-08-07T05:10:24;13.90;99.90
67777;DHT22;54576;52.020;5.536;2023-08-07T05:12:50;13.90;99.90
67777;DHT22;54576;52.020;5.536;2023-08-07T05:15:22;13.90;99.90
67777;DHT22;54576;52.020;5.536;2023-08-07T05:17:48;13.90;99.90
67777;DHT22;54576;52.020;5.536;2023-08-07T05:20:14;13.90;99.90
67777;DHT22;54576;52.020;5.536;2023-08-07T05:22:39;13.90;99.90
67777;DHT22;54576;52.020;5.536;2023-08-07T05:25:05;13.90;99.90
67777;DHT22;54576;52.020;5.536;2023-08-07T05:27:31;13.90;99.90
67777;DHT22;54576;52.020;5.536;2023-08-07T05:29:56;13.90;99.90
67777;DHT22;54576;52.020;5.536;2023-08-07T05:32:22;13.90;99.90
67777;DHT22;54576;52.020;5.536;2023-08-07T05:34:47;13.90;99.90
67777;DHT22;54576;52.020;5.536;2023-08-07T05:37:13;13.90;99.90
67777;DHT22;54576;52.020;5.536;2023-08-07T05:39:39;13.80;99.90
67777;DHT22;54576;52.020;5.536;2023-08-07T05:42:04;13.80;99.90
67777;DHT22;54576;52.020;5.536;2023-08-07T05:44:30;13.80;99.90
67777;DHT22;54576;52.020;5.536;2023-08-07T05:46:56;13.80;99.90
67777;DHT22;54576;52.020;5.536;2023-08-07T05:49:21;13.80;99.90
67777;DHT22;54576;52.020;5.536;2023-08-07T05:51:47;13.80;99.90
67777;DHT22;54576;52.020;5.536;2023-08-07T05:54:13;13.80;99.90
67777;DHT22;54576;52.020;5.536;2023-08-07T05:56:38;13.90;99.90
67777;DHT22;54576;52.020;5.536;2023-08-07T05:59:04;13.90;99.90
67777;DHT22;54576;52.020;5.536;2023-08-07T06:01:30;13.90;99.90
67777;DHT22;54576;52.020;5.536;2023-08-07T06:03:58;13.90;99.90
67777;DHT22;54576;52.020;5.536;2023-08-07T06:06:27;13.90;99.90
67777;DHT22;54576;52.020;5.536;2023-08-07T06:11:27;14.10;99.90
67777;DHT22;54576;52.020;5.536;2023-08-07T06:13:53;14.10;99.90
67777;DHT22;54576;52.020;5.536;2023-08-07T06:16:19;14.10;99.90
67777;DHT22;54576;52.020;5.536;2023-08-07T06:18:44;14.10;99.90
67777;DHT22;54576;52.020;5.536;2023-08-07T06:21:13;14.10;99.90
67777;DHT22;54576;52.020;5.536;2023-08-07T06:23:41;14.10;99.90
67777;DHT22;54576;52.020;5.536;2023-08-07T06:26:07;14.10;99.90
67777;DHT22;54576;52.020;5.536;2023-08-07T06:28:34;14.10;99.90
67777;DHT22;54576;52.020;5.536;2023-08-07T06:31:09;14.20;99.90
67777;DHT22;54576;52.020;5.536;2023-08-07T06:33:35;14.20;99.90
67777;DHT22;54576;52.020;5.536;2023-08-07T06:36:02;14.30;99.90
67777;DHT22;54576;52.020;5.536;2023-08-07T06:38:29;14.30;99.90
67777;DHT22;54576;52.020;5.536;2023-08-07T06:40:55;14.40;99.90
67777;DHT22;54576;52.020;5.536;2023-08-07T06:43:21;14.50;99.90
67777;DHT22;54576;52.020;5.536;2023-08-07T06:45:50;14.60;99.90
67777;DHT22;54576;52.020;5.536;2023-08-07T06:48:16;14.70;99.90
67777;DHT22;54576;52.020;5.536;2023-08-07T06:50:42;14.70;99.90
67777;DHT22;54576;52.020;5.536;2023-08-07T06:53:07;14.80;99.90
67777;DHT22;54576;52.020;5.536;2023-08-07T06:55:33;14.90;99.90
67777;DHT22;54576;52.020;5.536;2023-08-07T06:57:59;15.00;99.90
67777;DHT22;54576;52.020;5.536;2023-08-07T07:00:24;15.10;99.90
67777;DHT22;54576;52.020;5.536;2023-08-07T07:02:53;15.20;99.90
67777;DHT22;54576;52.020;5.536;2023-08-07T07:05:18;15.30;99.90
67777;DHT22;54576;52.020;5.536;2023-08-07T07:07:44;15.30;99.90
67777;DHT22;54576;52.020;5.536;2023-08-07T07:10:10;15.30;99.90
67777;DHT22;54576;52.020;5.536;2023-08-07T07:12:36;15.50;99.90
67777;DHT22;54576;52.020;5.536;2023-08-07T07:15:02;15.80;99.90
67777;DHT22;54576;52.020;5.536;2023-08-07T07:17:27;16.20;99.90
67777;DHT22;54576;52.020;5.536;2023-08-07T07:19:53;16.80;99.90
67777;DHT22;54576;52.020;5.536;2023-08-07T07:22:19;17.10;99.90
67777;DHT22;54576;52.020;5.536;2023-08-07T07:24:44;17.20;99.90
67777;DHT22;54576;52.020;5.536;2023-08-07T07:27:10;17.10;99.90
67777;DHT22;54576;52.020;5.536;2023-08-07T07:29:38;17.10;99.90
67777;DHT22;54576;52.020;5.536;2023-08-07T07:32:04;16.80;99.90
67777;DHT22;54576;52.020;5.536;2023-08-07T07:34:29;16.40;99.90
67777;DHT22;54576;52.020;5.536;2023-08-07T07:36:55;16.10;99.90
67777;DHT22;54576;52.020;5.536;2023-08-07T07:39:21;15.70;99.90
67777;DHT22;54576;52.020;5.536;2023-08-07T07:41:46;15.50;99.90
67777;DHT22;54576;52.020;5.536;2023-08-07T07:44:15;15.40;99.90
67777;DHT22;54576;52.020;5.536;2023-08-07T07:46:40;15.30;99.90
67777;DHT22;54576;52.020;5.536;2023-08-07T07:49:06;15.30;99.90
67777;DHT22;54576;52.020;5.536;2023-08-07T07:51:32;15.40;99.90
67777;DHT22;54576;52.020;5.536;2023-08-07T07:53:58;15.50;99.90
67777;DHT22;54576;52.020;5.536;2023-08-07T07:56:24;15.60;99.90
67777;DHT22;54576;52.020;5.536;2023-08-07T07:58:49;15.60;99.90
67777;DHT22;54576;52.020;5.536;2023-08-07T08:01:15;15.60;99.90
67777;DHT22;54576;52.020;5.536;2023-08-07T08:03:40;15.60;99.90
67777;DHT22;54576;52.020;5.536;2023-08-07T08:06:06;15.70;99.90
67777;DHT22;54576;52.020;5.536;2023-08-07T08:08:32;15.80;99.90
67777;DHT22;54576;52.020;5.536;2023-08-07T08:10:57;15.90;99.90
67777;DHT22;54576;52.020;5.536;2023-08-07T08:13:23;15.90;99.90
67777;DHT22;54576;52.020;5.536;2023-08-07T08:15:50;16.10;99.90
67777;DHT22;54576;52.020;5.536;2023-08-07T08:18:16;16.20;99.90
67777;DHT22;54576;52.020;5.536;2023-08-07T08:20:41;16.30;99.90
67777;DHT22;54576;52.020;5.536;2023-08-07T08:23:07;16.50;99.90
67777;DHT22;54576;52.020;5.536;2023-08-07T08:25:33;16.70;99.90
67777;DHT22;54576;52.020;5.536;2023-08-07T08:27:59;16.80;99.90
67777;DHT22;54576;52.020;5.536;2023-08-07T08:30:25;17.00;99.90
67777;DHT22;54576;52.020;5.536;2023-08-07T08:32:51;17.10;99.90
67777;DHT22;54576;52.020;5.536;2023-08-07T08:35:16;17.10;99.90
67777;DHT22;54576;52.020;5.536;2023-08-07T08:37:42;16.90;99.90
67777;DHT22;54576;52.020;5.536;2023-08-07T08:40:11;16.80;99.90
67777;DHT22;54576;52.020;5.536;2023-08-07T08:42:45;16.60;99.90
67777;DHT22;54576;52.020;5.536;2023-08-07T08:45:15;16.40;99.90
67777;DHT22;54576;52.020;5.536;2023-08-07T08:47:44;16.30;99.90
67777;DHT22;54576;52.020;5.536;2023-08-07T08:50:12;16.50;99.90
67777;DHT22;54576;52.020;5.536;2023-08-07T08:52:40;16.60;99.90
67777;DHT22;54576;52.020;5.536;2023-08-07T08:55:06;16.60;99.90
67777;DHT22;54576;52.020;5.536;2023-08-07T08:57:33;16.70;99.90
67777;DHT22;54576;52.020;5.536;2023-08-07T09:00:00;16.80;99.90
67777;DHT22;54576;52.020;5.536;2023-08-07T09:02:27;17.10;99.90
67777;DHT22;54576;52.020;5.536;2023-08-07T09:04:53;17.40;99.90
67777;DHT22;54576;52.020;5.536;2023-08-07T09:07:19;17.40;99.90
67777;DHT22;54576;52.020;5.536;2023-08-07T09:12:25;17.40;99.90
67777;DHT22;54576;52.020;5.536;2023-08-07T09:14:56;17.30;99.90
67777;DHT22;54576;52.020;5.536;2023-08-07T09:17:28;17.00;99.90
67777;DHT22;54576;52.020;5.536;2023-08-07T09:19:55;16.90;99.90
67777;DHT22;54576;52.020;5.536;2023-08-07T09:22:21;16.70;99.90
67777;DHT22;54576;52.020;5.536;2023-08-07T09:24:47;16.60;99.90
67777;DHT22;54576;52.020;5.536;2023-08-07T09:27:13;16.50;99.90
67777;DHT22;54576;52.020;5.536;2023-08-07T09:29:43;16.60;99.90
67777;DHT22;54576;52.020;5.536;2023-08-07T09:32:12;16.60;99.90
67777;DHT22;54576;52.020;5.536;2023-08-07T09:34:39;16.80;99.90
67777;DHT22;54576;52.020;5.536;2023-08-07T09:37:05;16.90;99.90
67777;DHT22;54576;52.020;5.536;2023-08-07T09:39:32;17.10;99.90
67777;DHT22;54576;52.020;5.536;2023-08-07T09:41:58;17.20;99.90
67777;DHT22;54576;52.020;5.536;2023-08-07T09:44:35;17.30;99.90
67777;DHT22;54576;52.020;5.536;2023-08-07T09:47:15;17.40;99.90
67777;DHT22;54576;52.020;5.536;2023-08-07T09:49:45;17.60;99.90
67777;DHT22;54576;52.020;5.536;2023-08-07T09:52:14;17.60;99.90
67777;DHT22;54576;52.020;5.536;2023-08-07T09:54:41;17.60;99.90
67777;DHT22;54576;52.020;5.536;2023-08-07T09:57:07;17.70;99.90
67777;DHT22;54576;52.020;5.536;2023-08-07T09:59:33;18.00;99.90
67777;DHT22;54576;52.020;5.536;2023-08-07T10:02:01;18.10;99.90
67777;DHT22;54576;52.020;5.536;2023-08-07T10:04:30;18.10;99.90
67777;DHT22;54576;52.020;5.536;2023-08-07T10:06:57;18.00;99.90
67777;DHT22;54576;52.020;5.536;2023-08-07T10:09:23;17.90;99.90
67777;DHT22;54576;52.020;5.536;2023-08-07T10:11:52;17.80;99.90
67777;DHT22;54576;52.020;5.536;2023-08-07T10:14:17;17.90;99.90
67777;DHT22;54576;52.020;5.536;2023-08-07T10:16:43;17.90;99.90
67777;DHT22;54576;52.020;5.536;2023-08-07T10:19:10;17.90;99.90
67777;DHT22;54576;52.020;5.536;2023-08-07T10:21:38;18.00;99.90
67777;DHT22;54576;52.020;5.536;2023-08-07T10:24:05;18.00;99.90
67777;DHT22;54576;52.020;5.536;2023-08-07T10:26:34;17.80;99.90
67777;DHT22;54576;52.020;5.536;2023-08-07T10:29:02;17.70;99.90
67777;DHT22;54576;52.020;5.536;2023-08-07T10:31:30;17.50;99.90
67777;DHT22;54576;52.020;5.536;2023-08-07T10:33:56;17.20;99.90
67777;DHT22;54576;52.020;5.536;2023-08-07T10:36:23;17.00;99.90
67777;DHT22;54576;52.020;5.536;2023-08-07T10:39:08;17.00;99.90
67777;DHT22;54576;52.020;5.536;2023-08-07T10:41:53;17.00;99.90
67777;DHT22;54576;52.020;5.536;2023-08-07T10:44:24;17.20;99.90
67777;DHT22;54576;52.020;5.536;2023-08-07T10:46:54;17.50;99.90
67777;DHT22;54576;52.020;5.536;2023-08-07T10:49:39;17.80;99.90
67777;DHT22;54576;52.020;5.536;2023-08-07T10:52:12;18.00;99.90
67777;DHT22;54576;52.020;5.536;2023-08-07T10:57:16;17.90;99.90
67777;DHT22;54576;52.020;5.536;2023-08-07T11:07:26;18.70;99.90
67777;DHT22;54576;52.020;5.536;2023-08-07T11:09:52;18.70;99.90
67777;DHT22;54576;52.020;5.536;2023-08-07T11:12:19;18.60;99.90
67777;DHT22;54576;52.020;5.536;2023-08-07T11:14:44;18.60;99.90
67777;DHT22;54576;52.020;5.536;2023-08-07T11:19:36;18.70;99.90
67777;DHT22;54576;52.020;5.536;2023-08-07T11:22:02;18.70;99.90
67777;DHT22;54576;52.020;5.536;2023-08-07T11:24:28;18.60;99.90
67777;DHT22;54576;52.020;5.536;2023-08-07T11:26:55;18.60;99.90
67777;DHT22;54576;52.020;5.536;2023-08-07T11:29:22;18.50;99.90
67777;DHT22;54576;52.020;5.536;2023-08-07T11:31:53;18.50;99.90
67777;DHT22;54576;52.020;5.536;2023-08-07T11:34:18;18.50;99.90
67777;DHT22;54576;52.020;5.536;2023-08-07T11:36:45;18.50;99.90
67777;DHT22;54576;52.020;5.536;2023-08-07T11:39:11;18.10;99.90
67777;DHT22;54576;52.020;5.536;2023-08-07T11:41:37;18.00;99.90
67777;DHT22;54576;52.020;5.536;2023-08-07T11:44:03;17.90;99.90
67777;DHT22;54576;52.020;5.536;2023-08-07T11:46:29;17.80;99.90
67777;DHT22;54576;52.020;5.536;2023-08-07T11:48:56;17.70;99.90
67777;DHT22;54576;52.020;5.536;2023-08-07T11:51:22;17.60;99.90
67777;DHT22;54576;52.020;5.536;2023-08-07T11:53:48;17.70;99.90
67777;DHT22;54576;52.020;5.536;2023-08-07T11:56:14;17.80;99.90
67777;DHT22;54576;52.020;5.536;2023-08-07T12:01:09;17.80;99.90
67777;DHT22;54576;52.020;5.536;2023-08-07T12:03:37;17.80;99.90
67777;DHT22;54576;52.020;5.536;2023-08-07T12:06:07;17.90;99.90
67777;DHT22;54576;52.020;5.536;2023-08-07T12:08:39;18.00;99.90
67777;DHT22;54576;52.020;5.536;2023-08-07T12:11:09;18.30;99.90
67777;DHT22;54576;52.020;5.536;2023-08-07T12:13:43;18.50;99.90
67777;DHT22;54576;52.020;5.536;2023-08-07T12:16:10;18.50;99.90
67777;DHT22;54576;52.020;5.536;2023-08-07T12:33:24;18.80;99.50
67777;DHT22;54576;52.020;5.536;2023-08-07T12:35:49;18.80;99.90
67777;DHT22;54576;52.020;5.536;2023-08-07T12:38:15;18.70;99.90
67777;DHT22;54576;52.020;5.536;2023-08-07T12:40:41;18.70;99.90
67777;DHT22;54576;52.020;5.536;2023-08-07T12:43:10;18.70;96.20
67777;DHT22;54576;52.020;5.536;2023-08-07T12:45:35;18.60;99.90
67777;DHT22;54576;52.020;5.536;2023-08-07T12:48:01;18.50;99.90
67777;DHT22;54576;52.020;5.536;2023-08-07T12:50:28;18.40;99.70
67777;DHT22;54576;52.020;5.536;2023-08-07T12:52:53;18.40;99.90
67777;DHT22;54576;52.020;5.536;2023-08-07T12:55:19;18.40;95.60
67777;DHT22;54576;52.020;5.536;2023-08-07T12:57:45;18.50;99.70
67777;DHT22;54576;52.020;5.536;2023-08-07T13:00:12;18.60;98.70
67777;DHT22;54576;52.020;5.536;2023-08-07T13:02:41;18.50;99.10
67777;DHT22;54576;52.020;5.536;2023-08-07T13:05:07;18.50;99.90
67777;DHT22;54576;52.020;5.536;2023-08-07T13:07:34;18.60;98.50
67777;DHT22;54576;52.020;5.536;2023-08-07T13:10:04;18.70;96.20
67777;DHT22;54576;52.020;5.536;2023-08-07T13:12:30;18.80;76.70
67777;DHT22;54576;52.020;5.536;2023-08-07T13:14:59;19.10;95.60
67777;DHT22;54576;52.020;5.536;2023-08-07T13:34:29;19.50;74.20
67777;DHT22;54576;52.020;5.536;2023-08-07T13:36:55;19.20;84.80
67777;DHT22;54576;52.020;5.536;2023-08-07T13:39:21;19.10;88.60
67777;DHT22;54576;52.020;5.536;2023-08-07T13:41:46;19.20;90.30
67777;DHT22;54576;52.020;5.536;2023-08-07T13:44:12;19.20;89.90
67777;DHT22;54576;52.020;5.536;2023-08-07T13:46:38;19.20;86.10
67777;DHT22;54576;52.020;5.536;2023-08-07T13:49:03;19.10;90.40
67777;DHT22;54576;52.020;5.536;2023-08-07T13:51:29;19.10;89.40
67777;DHT22;54576;52.020;5.536;2023-08-07T13:53:54;19.20;88.40
67777;DHT22;54576;52.020;5.536;2023-08-07T13:56:20;19.30;90.10
67777;DHT22;54576;52.020;5.536;2023-08-07T13:58:46;19.50;85.50
67777;DHT22;54576;52.020;5.536;2023-08-07T14:01:11;19.60;86.20
67777;DHT22;54576;52.020;5.536;2023-08-07T14:03:37;19.70;82.00
67777;DHT22;54576;52.020;5.536;2023-08-07T14:06:03;19.70;82.00
67777;DHT22;54576;52.020;5.536;2023-08-07T14:08:28;19.70;79.70
67777;DHT22;54576;52.020;5.536;2023-08-07T14:10:54;19.60;80.50
67777;DHT22;54576;52.020;5.536;2023-08-07T14:13:19;19.30;80.20
67777;DHT22;54576;52.020;5.536;2023-08-07T14:15:45;19.20;82.10
67777;DHT22;54576;52.020;5.536;2023-08-07T14:18:11;19.00;80.10
67777;DHT22;54576;52.020;5.536;2023-08-07T14:20:38;18.90;78.10
67777;DHT22;54576;52.020;5.536;2023-08-07T14:23:04;18.90;80.20
67777;DHT22;54576;52.020;5.536;2023-08-07T14:25:29;19.00;81.30
67777;DHT22;54576;52.020;5.536;2023-08-07T14:27:55;19.00;78.50
67777;DHT22;54576;52.020;5.536;2023-08-07T14:30:21;19.00;79.10
67777;DHT22;54576;52.020;5.536;2023-08-07T14:32:47;19.00;76.30
67777;DHT22;54576;52.020;5.536;2023-08-07T14:35:13;19.00;71.90
67777;DHT22;54576;52.020;5.536;2023-08-07T14:37:40;18.90;74.00
67777;DHT22;54576;52.020;5.536;2023-08-07T14:40:06;18.80;74.40
67777;DHT22;54576;52.020;5.536;2023-08-07T14:42:32;18.80;72.70
67777;DHT22;54576;52.020;5.536;2023-08-07T14:44:58;18.80;74.10
67777;DHT22;54576;52.020;5.536;2023-08-07T14:47:23;18.90;76.60
67777;DHT22;54576;52.020;5.536;2023-08-07T14:49:49;19.00;75.30
67777;DHT22;54576;52.020;5.536;2023-08-07T14:52:15;19.10;76.10
67777;DHT22;54576;52.020;5.536;2023-08-07T14:54:41;19.20;77.30
67777;DHT22;54576;52.020;5.536;2023-08-07T14:57:06;19.20;75.90
67777;DHT22;54576;52.020;5.536;2023-08-07T14:59:32;19.20;77.10
67777;DHT22;54576;52.020;5.536;2023-08-07T15:01:57;19.10;78.80
67777;DHT22;54576;52.020;5.536;2023-08-07T15:04:23;19.00;77.00
67777;DHT22;54576;52.020;5.536;2023-08-07T15:06:48;19.10;79.00
67777;DHT22;54576;52.020;5.536;2023-08-07T15:09:16;19.10;76.30
67777;DHT22;54576;52.020;5.536;2023-08-07T15:11:43;19.10;76.00
67777;DHT22;54576;52.020;5.536;2023-08-07T15:14:08;19.20;77.40
67777;DHT22;54576;52.020;5.536;2023-08-07T15:16:34;19.30;75.60
67777;DHT22;54576;52.020;5.536;2023-08-07T15:19:02;19.40;75.90
67777;DHT22;54576;52.020;5.536;2023-08-07T15:21:29;19.30;74.80
67777;DHT22;54576;52.020;5.536;2023-08-07T15:23:57;19.30;76.00
67777;DHT22;54576;52.020;5.536;2023-08-07T15:26:23;19.20;75.90
67777;DHT22;54576;52.020;5.536;2023-08-07T15:28:49;19.10;74.90
67777;DHT22;54576;52.020;5.536;2023-08-07T15:31:14;19.00;76.00
67777;DHT22;54576;52.020;5.536;2023-08-07T15:33:40;18.90;77.50
67777;DHT22;54576;52.020;5.536;2023-08-07T15:36:06;18.80;77.90
67777;DHT22;54576;52.020;5.536;2023-08-07T15:38:35;18.70;79.10
67777;DHT22;54576;52.020;5.536;2023-08-07T15:41:03;18.60;81.40
67777;DHT22;54576;52.020;5.536;2023-08-07T15:43:29;18.60;82.90
67777;DHT22;54576;52.020;5.536;2023-08-07T15:45:54;18.60;82.70
67777;DHT22;54576;52.020;5.536;2023-08-07T15:48:20;18.60;84.00
67777;DHT22;54576;52.020;5.536;2023-08-07T15:50:46;18.50;85.80
67777;DHT22;54576;52.020;5.536;2023-08-07T15:53:12;18.50;90.00
67777;DHT22;54576;52.020;5.536;2023-08-07T15:55:38;18.40;91.70
67777;DHT22;54576;52.020;5.536;2023-08-07T15:58:05;18.30;92.30
67777;DHT22;54576;52.020;5.536;2023-08-07T16:00:32;18.40;93.60
67777;DHT22;54576;52.020;5.536;2023-08-07T16:03:05;18.50;93.70
67777;DHT22;54576;52.020;5.536;2023-08-07T16:05:37;18.40;93.00
67777;DHT22;54576;52.020;5.536;2023-08-07T16:08:04;18.30;92.00
67777;DHT22;54576;52.020;5.536;2023-08-07T16:10:33;18.10;92.90
67777;DHT22;54576;52.020;5.536;2023-08-07T16:12:59;18.00;94.20
67777;DHT22;54576;52.020;5.536;2023-08-07T16:15:25;18.00;94.90
67777;DHT22;54576;52.020;5.536;2023-08-07T16:17:51;18.00;95.40
67777;DHT22;54576;52.020;5.536;2023-08-07T16:20:20;18.00;95.40
67777;DHT22;54576;52.020;5.536;2023-08-07T16:22:46;18.00;95.10
67777;DHT22;54576;52.020;5.536;2023-08-07T16:25:12;18.00;95.20
67777;DHT22;54576;52.020;5.536;2023-08-07T16:27:40;17.90;95.30